Time;durP1;ratioP1;P1;durP2;ratioP2;P2;SDS_P1;SDS_P2;PMS_P1;PMS_P2;Temp;Humidity;BMP_temperature;BMP_pressure;BME280_temperature;BME280_humidity;BME280_pressure;Samples;Min_cycle;Max_cycle;Signal;HPM_P1;HPM_P2
2023/05/11 00:01:43;;;;;;;2.92;1.40;;;;;;;16.41;88.66;100690.16;4982197;28;20076;-67
2023/05/11 00:04:08;;;;;;;2.60;1.10;;;;;;;16.29;89.23;100690.56;4980454;28;20078;-68
2023/05/11 00:06:33;;;;;;;1.55;0.60;;;;;;;16.32;89.30;100697.16;4989205;28;20113;-67
2023/05/11 00:09:01;;;;;;;3.55;1.42;;;;;;;16.40;89.17;100701.38;4987341;28;20045;-68
2023/05/11 00:11:27;;;;;;;1.52;0.82;;;;;;;16.44;89.28;100700.22;4989370;28;20072;-68
2023/05/11 00:13:52;;;;;;;3.25;1.60;;;;;;;16.30;89.63;100699.50;4965012;28;20114;-67
2023/05/11 00:16:18;;;;;;;1.90;1.02;;;;;;;16.19;90.04;100699.50;4984390;28;20034;-67
2023/05/11 00:18:43;;;;;;;1.50;1.02;;;;;;;16.21;90.18;100697.16;4961403;28;20031;-67
2023/05/11 00:21:09;;;;;;;3.17;1.35;;;;;;;16.32;89.99;100695.19;4982564;28;20487;-67
2023/05/11 00:23:34;;;;;;;4.22;1.50;;;;;;;16.38;89.61;100698.28;4988677;28;20039;-68
2023/05/11 00:26:00;;;;;;;4.32;1.58;;;;;;;16.31;89.81;100696.38;4982688;28;20031;-68
2023/05/11 00:28:25;;;;;;;2.22;1.13;;;;;;;16.24;90.71;100697.16;4988274;28;20479;-68
2023/05/11 00:30:57;;;;;;;3.17;1.10;;;;;;;16.36;90.11;100700.63;4987284;28;20069;-68
2023/05/11 00:33:23;;;;;;;1.90;1.02;;;;;;;16.39;89.53;100705.28;4980986;28;20045;-66
2023/05/11 00:35:50;;;;;;;2.60;1.20;;;;;;;16.47;89.41;100701.38;4965307;28;20105;-68
2023/05/11 00:38:15;;;;;;;2.33;1.20;;;;;;;16.46;88.97;100710.69;4980752;28;20031;-68
2023/05/11 00:40:41;;;;;;;1.40;0.75;;;;;;;16.39;88.54;100695.19;4987496;28;20030;-68
2023/05/11 00:43:06;;;;;;;2.67;0.90;;;;;;;16.41;88.81;100700.25;4984672;28;20454;-68
2023/05/11 00:45:32;;;;;;;2.63;1.23;;;;;;;16.42;88.43;100704.50;4972547;28;20129;-67
2023/05/11 00:47:58;;;;;;;1.55;0.77;;;;;;;16.40;88.05;100701.38;4968646;28;20466;-67
2023/05/11 00:50:24;;;;;;;5.80;1.55;;;;;;;16.26;88.68;100694.81;4987037;28;20070;-68
2023/05/11 00:52:50;;;;;;;1.35;0.88;;;;;;;16.35;88.48;100694.44;4973428;28;20038;-68
2023/05/11 00:55:20;;;;;;;0.90;0.65;;;;;;;16.34;88.48;100702.97;4973357;28;20396;-68
2023/05/11 00:57:46;;;;;;;2.00;0.80;;;;;;;16.34;88.53;100697.53;4963048;28;20081;-68
2023/05/11 01:00:12;;;;;;;2.47;1.20;;;;;;;16.34;88.17;100698.31;4974983;28;20123;-67
2023/05/11 01:02:38;;;;;;;3.45;1.05;;;;;;;16.36;88.31;100697.91;4984745;28;20117;-68
2023/05/11 01:05:05;;;;;;;1.00;0.77;;;;;;;16.38;88.13;100695.56;4989139;28;20034;-68
2023/05/11 01:07:44;;;;;;;1.65;0.93;;;;;;;16.40;88.19;100699.44;4991691;28;20034;-67
2023/05/11 01:10:28;;;;;;;2.40;1.58;;;;;;;16.36;88.20;100701.41;4957915;28;20394;-64
2023/05/11 01:13:25;;;;;;;2.60;1.13;;;;;;;16.28;88.66;100692.50;4987907;28;20026;-67
2023/05/11 01:15:52;;;;;;;3.53;1.05;;;;;;;16.32;88.53;100699.88;4991616;28;20061;-65
2023/05/11 01:18:39;;;;;;;1.50;0.88;;;;;;;16.34;88.76;100698.31;4990515;28;20042;-65
2023/05/11 01:21:14;;;;;;;2.58;0.77;;;;;;;16.38;88.68;100699.06;4974958;28;20069;-66
2023/05/11 01:23:54;;;;;;;2.30;1.40;;;;;;;16.35;88.52;100691.72;5004170;23;20061;-66
2023/05/11 01:26:32;;;;;;;2.03;0.88;;;;;;;16.38;88.31;100704.50;4985375;28;20489;-64
2023/05/11 01:29:23;;;;;;;2.92;0.90;;;;;;;16.29;88.49;100698.72;5007473;28;20057;-66
2023/05/11 01:31:53;;;;;;;1.33;0.88;;;;;;;16.26;88.97;100702.97;5008495;28;20438;-65
2023/05/11 01:34:22;;;;;;;1.55;0.77;;;;;;;16.31;88.45;100703.75;4993299;28;20096;-66
2023/05/11 01:36:58;;;;;;;3.10;0.85;;;;;;;16.35;88.45;100702.59;4989002;28;20437;-65
2023/05/11 01:39:35;;;;;;;1.75;0.82;;;;;;;16.38;88.49;100704.50;5005472;28;20042;-66
2023/05/11 01:42:07;;;;;;;2.03;0.93;;;;;;;16.34;88.42;100697.53;5009815;28;20548;-64
2023/05/11 01:44:34;;;;;;;2.33;1.02;;;;;;;16.34;87.92;100697.53;4993103;28;20560;-65
2023/05/11 01:47:01;;;;;;;1.33;0.82;;;;;;;16.34;87.92;100708.41;5009884;28;20057;-65
2023/05/11 01:49:26;;;;;;;2.05;1.10;;;;;;;16.31;87.88;100701.03;5012236;28;20037;-65
2023/05/11 01:51:53;;;;;;;1.45;0.85;;;;;;;16.22;88.19;100710.34;5010379;28;20548;-65
2023/05/11 01:54:20;;;;;;;0.85;0.85;;;;;;;16.25;88.00;100709.59;5011588;28;20096;-65
2023/05/11 01:56:48;;;;;;;0.57;0.47;;;;;;;16.16;88.27;100709.19;5002243;28;20168;-66
2023/05/11 01:59:17;;;;;;;;;;;;;;;16.12;88.40;100716.59;5004236;28;20061;-65
2023/05/11 02:01:43;;;;;;;1.10;0.85;;;;;;;16.13;88.74;100717.38;5010192;28;19913;-65
2023/05/11 02:04:10;;;;;;;0.75;0.52;;;;;;;16.03;89.18;100720.88;5002918;28;20499;-65
2023/05/11 02:06:37;;;;;;;2.47;0.82;;;;;;;16.09;89.13;100717.38;4981441;28;20379;-65
2023/05/11 02:09:04;;;;;;;0.80;0.60;;;;;;;16.16;89.03;100724.75;5009632;28;20038;-66
2023/05/11 02:11:33;;;;;;;1.70;0.75;;;;;;;16.11;89.31;100727.84;4998035;28;20031;-65
2023/05/11 02:14:00;;;;;;;3.25;0.98;;;;;;;16.18;89.08;100731.31;4991998;28;20030;-65
2023/05/11 02:16:28;;;;;;;1.30;0.60;;;;;;;16.22;88.60;100732.09;5007294;28;20034;-65
2023/05/11 02:18:56;;;;;;;2.08;1.23;;;;;;;16.14;88.91;100732.53;4992695;28;20026;-65
2023/05/11 02:21:26;;;;;;;3.05;1.15;;;;;;;16.19;88.86;100732.91;4989901;28;20137;-65
2023/05/11 02:23:53;;;;;;;1.25;0.68;;;;;;;16.21;88.67;100725.13;4986330;28;20034;-65
2023/05/11 02:26:19;;;;;;;1.27;0.65;;;;;;;16.21;88.85;100733.28;5001982;28;20033;-66
2023/05/11 02:28:44;;;;;;;4.15;0.93;;;;;;;16.27;88.58;100742.59;4997702;28;20072;-65
2023/05/11 02:31:16;;;;;;;1.75;0.90;;;;;;;16.27;88.35;100737.16;4997896;28;20037;-65
2023/05/11 02:33:46;;;;;;;2.22;1.05;;;;;;;16.21;88.63;100733.28;4994462;28;20103;-66
2023/05/11 02:36:16;;;;;;;1.63;0.80;;;;;;;16.18;88.97;100736.00;5001772;28;20387;-66
2023/05/11 02:38:44;;;;;;;1.52;0.65;;;;;;;16.20;88.95;100731.72;4996734;28;20087;-66
2023/05/11 02:41:14;;;;;;;1.75;0.98;;;;;;;16.22;88.69;100732.09;4986677;28;20367;-66
2023/05/11 02:43:46;;;;;;;1.00;0.73;;;;;;;16.00;88.99;100727.09;4993159;28;20034;-65
2023/05/11 02:46:20;;;;;;;1.23;1.02;;;;;;;16.03;90.03;100737.94;5005245;28;20144;-66
2023/05/11 02:48:51;;;;;;;1.98;0.77;;;;;;;16.02;89.89;100730.97;5000885;28;20491;-66
2023/05/11 02:51:21;;;;;;;2.00;0.70;;;;;;;16.13;89.38;100741.81;5002816;28;20059;-65
2023/05/11 02:53:50;;;;;;;0.98;0.70;;;;;;;16.15;89.58;100731.34;4993674;28;20163;-65
2023/05/11 02:56:16;;;;;;;1.90;0.93;;;;;;;16.09;89.48;100741.84;4999651;28;20068;-66
2023/05/11 02:58:43;;;;;;;2.00;1.15;;;;;;;16.08;89.51;100739.50;4989909;28;20644;-66
2023/05/11 03:01:21;;;;;;;0.68;0.60;;;;;;;16.09;89.61;100741.84;5005924;28;20107;-65
2023/05/11 03:03:47;;;;;;;1.05;0.88;;;;;;;16.12;89.57;100741.03;4975443;28;20030;-64
2023/05/11 03:06:13;;;;;;;5.35;0.90;;;;;;;16.18;89.53;100742.19;4996954;28;20069;-65
2023/05/11 03:08:41;;;;;;;1.33;0.93;;;;;;;16.16;89.00;100743.78;5009036;28;20053;-67
2023/05/11 03:11:08;;;;;;;1.60;0.80;;;;;;;16.08;89.29;100740.28;4993538;28;20030;-65
2023/05/11 03:13:34;;;;;;;2.03;1.40;;;;;;;16.00;89.50;100733.31;5008965;28;20486;-66
2023/05/11 03:16:02;;;;;;;2.10;0.90;;;;;;;16.03;89.36;100748.03;5007160;28;20045;-65
2023/05/11 03:18:36;;;;;;;1.52;0.70;;;;;;;15.86;90.28;100737.94;4999078;28;20022;-65
2023/05/11 03:21:01;;;;;;;1.30;1.00;;;;;;;15.86;90.43;100744.16;4981722;28;20042;-64
2023/05/11 03:23:29;;;;;;;1.80;1.08;;;;;;;15.92;90.30;100745.34;4995081;28;20025;-64
2023/05/11 03:25:56;;;;;;;1.45;0.85;;;;;;;15.95;89.79;100741.84;4992193;28;20124;-65
2023/05/11 03:28:24;;;;;;;0.98;0.43;;;;;;;15.98;89.71;100740.28;4983077;28;20029;-63
2023/05/11 03:30:58;;;;;;;1.25;0.75;;;;;;;15.95;89.61;100744.53;4987311;28;20046;-63
2023/05/11 03:33:24;;;;;;;1.20;0.80;;;;;;;15.97;89.83;100739.50;5002584;28;20034;-63
2023/05/11 03:35:52;;;;;;;2.28;0.82;;;;;;;15.95;89.43;100741.84;4999838;28;20026;-62
2023/05/11 03:38:23;;;;;;;0.93;0.60;;;;;;;15.93;89.45;100736.00;4997121;28;20030;-63
2023/05/11 03:40:51;;;;;;;2.88;1.27;;;;;;;15.89;89.82;100743.38;5005890;28;20502;-64
2023/05/11 03:43:21;;;;;;;3.72;1.23;;;;;;;15.90;89.60;100744.16;4983634;28;20120;-63
2023/05/11 03:45:51;;;;;;;1.45;1.05;;;;;;;15.81;90.30;100741.06;4991510;28;20026;-63
2023/05/11 03:48:19;;;;;;;0.93;0.73;;;;;;;15.66;90.50;100742.22;5002093;28;20045;-65
2023/05/11 03:50:45;;;;;;;2.13;1.05;;;;;;;15.63;90.82;100735.63;5008135;28;20021;-64
2023/05/11 03:53:12;;;;;;;2.13;0.88;;;;;;;15.64;90.70;100736.41;5007187;28;20490;-65
2023/05/11 03:55:37;;;;;;;0.95;0.60;;;;;;;15.70;91.10;100746.47;4990076;28;20022;-66
2023/05/11 03:58:10;;;;;;;2.42;1.10;;;;;;;15.78;91.18;100739.88;5004986;28;20045;-65
2023/05/11 04:00:40;;;;;;;1.58;0.70;;;;;;;15.82;90.79;100746.09;4996467;28;20410;-66
2023/05/11 04:03:08;;;;;;;1.02;0.70;;;;;;;15.88;90.60;100736.41;4986686;28;20118;-65
2023/05/11 04:05:33;;;;;;;2.67;0.90;;;;;;;15.85;90.54;100742.59;4979550;28;20044;-65
2023/05/11 04:08:02;;;;;;;2.08;1.20;;;;;;;15.87;90.49;100751.13;4999800;28;20033;-65
2023/05/11 04:10:28;;;;;;;1.75;0.70;;;;;;;15.90;90.34;100741.44;4991787;28;20029;-65
2023/05/11 04:12:54;;;;;;;1.55;0.50;;;;;;;15.95;89.88;100749.97;4983751;28;20021;-65
2023/05/11 04:15:19;;;;;;;1.35;0.85;;;;;;;16.00;89.73;100746.88;5009820;28;20108;-66
2023/05/11 04:17:47;;;;;;;1.65;1.05;;;;;;;15.97;89.51;100760.44;5004056;28;20034;-65
2023/05/11 04:20:13;;;;;;;1.23;0.70;;;;;;;15.82;90.30;100759.69;4991916;28;20321;-65
2023/05/11 04:22:39;;;;;;;3.33;1.35;;;;;;;15.88;90.35;100744.56;5007303;28;20045;-65
2023/05/11 04:25:05;;;;;;;2.22;0.88;;;;;;;15.83;90.50;100753.06;4997733;28;20423;-65
2023/05/11 04:27:34;;;;;;;1.83;0.88;;;;;;;15.90;90.17;100755.81;5006759;28;20069;-66
2023/05/11 04:30:00;;;;;;;1.52;0.88;;;;;;;15.92;90.22;100761.63;4986403;28;20475;-65
2023/05/11 04:32:28;;;;;;;1.92;1.05;;;;;;;16.00;90.02;100755.03;5007986;28;20718;-65
2023/05/11 04:34:54;;;;;;;2.05;0.82;;;;;;;15.94;89.61;100769.38;5002448;28;20481;-65
2023/05/11 04:37:22;;;;;;;2.15;1.05;;;;;;;15.94;89.64;100767.47;4995161;28;20038;-65
2023/05/11 04:39:49;;;;;;;2.03;1.08;;;;;;;15.96;89.35;100765.13;4992737;28;20088;-65
2023/05/11 04:42:15;;;;;;;1.50;1.05;;;;;;;15.93;89.51;100760.47;4991257;28;20576;-65
2023/05/11 04:44:42;;;;;;;4.03;1.20;;;;;;;15.92;89.93;100760.84;5004309;28;20109;-66
2023/05/11 04:47:08;;;;;;;1.08;0.90;;;;;;;15.92;89.91;100761.63;4996485;28;20121;-66
2023/05/11 04:49:33;;;;;;;2.50;1.05;;;;;;;15.76;90.17;100772.09;4998789;28;20079;-65
2023/05/11 04:51:59;;;;;;;1.02;0.93;;;;;;;15.82;90.41;100765.13;4991742;28;20494;-65
2023/05/11 04:54:25;;;;;;;7.47;1.38;;;;;;;15.87;90.01;100766.69;4987608;28;20041;-65
2023/05/11 04:56:50;;;;;;;3.17;1.30;;;;;;;15.92;90.13;100774.44;5009726;28;20433;-65
2023/05/11 04:59:16;;;;;;;2.28;1.02;;;;;;;16.01;89.59;100770.16;5013181;28;20560;-65
2023/05/11 05:01:41;;;;;;;3.85;1.02;;;;;;;15.97;89.92;100761.22;4991563;28;20030;-65
2023/05/11 05:04:07;;;;;;;1.55;0.68;;;;;;;16.05;89.67;100770.16;4998771;28;20042;-65
2023/05/11 05:06:33;;;;;;;1.48;0.52;;;;;;;16.01;89.84;100772.88;4989079;28;20084;-65
2023/05/11 05:08:58;;;;;;;1.25;0.75;;;;;;;15.93;90.10;100776.00;5010203;28;20037;-65
2023/05/11 05:11:24;;;;;;;2.05;0.77;;;;;;;15.89;90.53;100769.78;4988182;28;20029;-64
2023/05/11 05:13:49;;;;;;;2.63;1.10;;;;;;;15.98;90.88;100767.44;5007400;28;20414;-65
2023/05/11 05:16:16;;;;;;;1.67;0.50;;;;;;;16.04;90.82;100777.56;4997211;28;20405;-65
2023/05/11 05:18:41;;;;;;;2.20;0.98;;;;;;;16.07;90.42;100776.75;5005509;28;20025;-65
2023/05/11 05:21:08;;;;;;;1.55;0.75;;;;;;;16.10;90.92;100780.66;4984188;28;20034;-64
2023/05/11 05:23:34;;;;;;;2.53;1.00;;;;;;;16.16;90.55;100776.38;5003527;28;20037;-64
2023/05/11 05:25:59;;;;;;;2.67;1.02;;;;;;;16.14;90.59;100771.31;5006730;28;20069;-66
2023/05/11 05:28:25;;;;;;;7.30;1.25;;;;;;;16.16;90.84;100771.69;4995714;28;20032;-65
2023/05/11 05:30:51;;;;;;;2.42;0.80;;;;;;;16.07;91.06;100776.75;4996893;28;20501;-64
2023/05/11 05:33:17;;;;;;;3.63;1.63;;;;;;;16.12;91.20;100776.38;4992187;28;20037;-66
2023/05/11 05:35:45;;;;;;;1.95;0.98;;;;;;;16.20;91.03;100785.31;4986006;28;20075;-66
2023/05/11 05:38:11;;;;;;;1.85;1.00;;;;;;;16.21;91.41;100787.63;4989397;28;20025;-66
2023/05/11 05:40:38;;;;;;;3.97;1.05;;;;;;;16.16;91.52;100784.53;4999992;28;20034;-65
2023/05/11 05:43:04;;;;;;;4.18;1.48;;;;;;;16.19;91.82;100789.19;4989550;28;20038;-66
2023/05/11 05:45:30;;;;;;;1.73;1.05;;;;;;;16.18;91.50;100788.41;4994690;28;20030;-67
2023/05/11 05:47:57;;;;;;;3.97;1.50;;;;;;;16.22;91.60;100786.47;4989146;28;20041;-65
2023/05/11 05:50:23;;;;;;;3.10;1.55;;;;;;;16.19;91.32;100795.41;5006800;28;20045;-68
2023/05/11 05:52:54;;;;;;;2.00;1.33;;;;;;;16.19;91.43;100797.34;5002380;28;20030;-67
2023/05/11 05:55:22;;;;;;;2.80;1.10;;;;;;;16.22;91.38;100797.31;5004550;28;20030;-66
2023/05/11 05:57:49;;;;;;;1.63;0.80;;;;;;;16.24;91.59;100800.44;4989270;28;20034;-67
2023/05/11 06:00:15;;;;;;;4.60;1.17;;;;;;;16.30;91.24;100797.34;4977688;28;20141;-66
2023/05/11 06:02:40;;;;;;;2.60;0.80;;;;;;;16.41;90.99;100801.59;5000601;28;20068;-63
2023/05/11 06:05:09;;;;;;;1.30;0.75;;;;;;;16.50;90.55;100806.66;4994236;28;20923;-64
2023/05/11 06:07:35;;;;;;;3.28;1.08;;;;;;;16.41;90.74;100798.88;5006981;28;20025;-64
2023/05/11 06:10:01;;;;;;;2.35;1.52;;;;;;;16.39;91.18;100814.03;4999095;28;20033;-63
2023/05/11 06:12:28;;;;;;;3.53;1.33;;;;;;;16.38;91.06;100812.47;4990970;28;20040;-62
2023/05/11 06:14:55;;;;;;;0.85;0.75;;;;;;;16.42;91.32;100818.66;4994212;28;20703;-64
2023/05/11 06:17:21;;;;;;;2.22;1.35;;;;;;;16.42;91.21;100815.94;4988966;28;20037;-64
2023/05/11 06:19:50;;;;;;;2.50;1.20;;;;;;;16.39;91.42;100822.19;4995269;28;20560;-64
2023/05/11 06:22:21;;;;;;;3.58;1.55;;;;;;;16.38;91.60;100823.34;4996352;28;20018;-65
2023/05/11 06:24:47;;;;;;;5.35;1.35;;;;;;;16.35;91.80;100816.75;4992046;28;20079;-65
2023/05/11 06:27:13;;;;;;;2.60;1.25;;;;;;;16.38;91.62;100821.41;4989453;28;20033;-65
2023/05/11 06:29:41;;;;;;;4.18;1.17;;;;;;;16.34;92.21;100814.44;4971108;28;20053;-65
2023/05/11 06:32:06;;;;;;;2.00;1.42;;;;;;;16.36;92.22;100823.72;5004216;28;20038;-67
2023/05/11 06:34:33;;;;;;;4.00;1.35;;;;;;;16.31;92.83;100817.91;5005370;28;20040;-66
2023/05/11 06:36:59;;;;;;;5.20;1.38;;;;;;;16.28;93.04;100817.53;4988754;28;20552;-66
2023/05/11 06:39:27;;;;;;;2.50;1.38;;;;;;;16.30;93.48;100822.56;4996063;28;20038;-67
2023/05/11 06:41:53;;;;;;;4.43;1.58;;;;;;;16.36;93.66;100826.44;5005916;28;20497;-67
2023/05/11 06:44:18;;;;;;;5.90;2.47;;;;;;;16.34;93.83;100817.16;4991831;28;20022;-64
2023/05/11 06:46:45;;;;;;;3.10;1.05;;;;;;;16.49;93.02;100829.59;4989643;28;20038;-67
2023/05/11 06:49:10;;;;;;;2.72;0.88;;;;;;;16.46;93.59;100827.59;5008989;28;20068;-67
2023/05/11 06:51:36;;;;;;;3.55;1.25;;;;;;;16.41;93.92;100823.34;4982502;28;20040;-64
2023/05/11 06:54:01;;;;;;;4.10;1.13;;;;;;;16.42;94.24;100829.53;4997432;28;20040;-66
2023/05/11 06:56:28;;;;;;;3.78;1.50;;;;;;;16.40;94.49;100826.44;4985390;28;20029;-65
2023/05/11 06:58:54;;;;;;;3.00;1.05;;;;;;;16.43;94.23;100822.97;4989955;28;20022;-66
2023/05/11 07:01:19;;;;;;;2.65;1.83;;;;;;;16.42;94.81;100834.97;4979561;28;20036;-66
2023/05/11 07:03:47;;;;;;;5.07;1.52;;;;;;;16.42;94.89;100827.63;5005195;28;20061;-67
2023/05/11 07:06:13;;;;;;;4.93;1.60;;;;;;;16.48;94.70;100838.88;5000615;28;20034;-66
2023/05/11 07:08:38;;;;;;;4.72;1.13;;;;;;;16.46;95.22;100833.03;5009679;28;20037;-66
2023/05/11 07:11:06;;;;;;;2.38;1.67;;;;;;;16.54;94.91;100831.91;5008513;28;20572;-65
2023/05/11 07:13:32;;;;;;;3.35;1.73;;;;;;;16.60;94.73;100827.63;5008718;28;20104;-67
2023/05/11 07:15:57;;;;;;;5.03;1.52;;;;;;;16.57;95.01;100834.63;5009424;28;20121;-66
2023/05/11 07:18:23;;;;;;;3.90;1.55;;;;;;;16.58;94.96;100828.03;5006863;28;20037;-67
2023/05/11 07:21:09;;;;;;;7.30;2.60;;;;;;;16.66;94.72;100826.84;4979788;28;21140;-67
2023/05/11 07:23:34;;;;;;;4.05;1.50;;;;;;;16.62;94.76;100831.50;4925083;29;20044;-64
2023/05/11 07:25:59;;;;;;;3.75;1.75;;;;;;;16.64;94.73;100831.91;4924010;29;20059;-65
2023/05/11 07:28:25;;;;;;;3.25;1.58;;;;;;;16.60;94.95;100828.41;4928583;29;20047;-64
2023/05/11 07:30:50;;;;;;;1.75;1.13;;;;;;;16.67;95.12;100830.31;4928160;29;20038;-63
2023/05/11 07:33:16;;;;;;;3.33;1.52;;;;;;;16.68;94.97;100831.88;4929833;29;20039;-65
2023/05/11 07:35:41;;;;;;;2.13;0.95;;;;;;;16.79;94.73;100838.06;4928632;29;20411;-65
2023/05/11 07:38:08;;;;;;;3.17;1.20;;;;;;;16.76;94.72;100828.75;4929402;29;20043;-64
2023/05/11 07:40:34;;;;;;;2.10;1.05;;;;;;;16.75;94.74;100838.09;4929603;29;20265;-65
2023/05/11 07:42:59;;;;;;;3.55;1.83;;;;;;;16.74;94.89;100841.97;4923624;29;20440;-63
2023/05/11 07:45:25;;;;;;;5.65;1.67;;;;;;;16.77;94.92;100843.13;4913310;29;20043;-63
2023/05/11 07:47:50;;;;;;;1.23;0.98;;;;;;;16.78;94.97;100836.53;4929749;29;20066;-64
2023/05/11 07:50:16;;;;;;;2.25;1.00;;;;;;;16.81;94.75;100841.97;4928753;29;20043;-63
2023/05/11 07:52:41;;;;;;;2.72;1.23;;;;;;;16.79;94.86;100840.81;4925829;29;20043;-67
2023/05/11 07:55:07;;;;;;;3.33;1.08;;;;;;;16.79;94.75;100843.53;4926222;29;20047;-64
2023/05/11 07:57:32;;;;;;;2.17;0.90;;;;;;;16.83;94.54;100841.56;4927305;29;20091;-67
2023/05/11 07:59:58;;;;;;;6.45;1.25;;;;;;;16.84;94.49;100845.84;4942332;28;20049;-64
2023/05/11 08:02:24;;;;;;;4.00;1.25;;;;;;;16.83;94.70;100849.72;5001687;28;20033;-64
2023/05/11 08:04:49;;;;;;;2.30;0.90;;;;;;;16.82;94.71;100845.47;5007488;28;20034;-65
2023/05/11 08:07:14;;;;;;;2.25;1.00;;;;;;;16.85;94.66;100848.19;4995629;28;20137;-66
2023/05/11 08:09:40;;;;;;;0.90;0.65;;;;;;;16.86;94.98;100849.72;5004022;28;20044;-65
2023/05/11 08:12:06;;;;;;;1.25;0.73;;;;;;;16.90;95.01;100844.25;5004195;28;20514;-65
2023/05/11 08:14:31;;;;;;;3.05;0.90;;;;;;;16.88;95.04;100852.03;4997215;28;20080;-67
2023/05/11 08:17:17;;;;;;;1.98;0.85;;;;;;;16.87;95.51;100858.66;4997342;28;20057;-66
2023/05/11 08:19:42;;;;;;;0.73;0.55;;;;;;;16.87;95.64;100858.66;4920419;29;20560;-64
2023/05/11 08:22:08;;;;;;;1.73;0.90;;;;;;;16.86;95.93;100854.41;4910504;29;20092;-65
2023/05/11 08:24:33;;;;;;;4.10;1.15;;;;;;;16.98;95.70;100856.69;4908013;29;20542;-66
2023/05/11 08:26:58;;;;;;;1.63;1.05;;;;;;;16.95;95.71;100849.31;4903725;29;20043;-66
2023/05/11 08:29:26;;;;;;;1.98;0.95;;;;;;;16.92;95.80;100842.72;4914716;29;20119;-65
2023/05/11 08:31:52;;;;;;;1.23;0.82;;;;;;;16.91;95.99;100854.00;4916298;29;20031;-68
2023/05/11 08:34:17;;;;;;;1.45;0.70;;;;;;;16.99;95.73;100855.53;4894296;29;20458;-68
2023/05/11 08:36:43;;;;;;;1.38;0.68;;;;;;;16.92;96.00;100853.59;4905811;29;20072;-68
2023/05/11 08:39:09;;;;;;;2.45;0.90;;;;;;;16.95;96.03;100862.94;4908745;29;20047;-68
2023/05/11 08:41:34;;;;;;;4.22;1.10;;;;;;;16.92;96.14;100861.75;4911646;29;20035;-67
2023/05/11 08:44:00;;;;;;;3.13;1.33;;;;;;;16.91;96.04;100851.28;4897816;29;20048;-69
2023/05/11 08:46:29;;;;;;;1.88;0.75;;;;;;;16.91;96.29;100857.50;4903704;29;20058;-66
2023/05/11 08:48:56;;;;;;;1.88;1.35;;;;;;;16.88;96.57;100860.19;4901778;29;20497;-66
2023/05/11 08:51:23;;;;;;;1.83;1.23;;;;;;;16.90;96.38;100855.16;4914938;29;20066;-68
2023/05/11 08:53:48;;;;;;;1.30;0.68;;;;;;;16.94;96.52;100856.69;4913570;29;20047;-63
2023/05/11 08:56:14;;;;;;;2.28;1.05;;;;;;;16.96;96.70;100861.75;4931012;28;20050;-66
2023/05/11 08:58:41;;;;;;;2.00;0.98;;;;;;;16.97;96.83;100861.38;4988522;28;20026;-68
2023/05/11 09:01:09;;;;;;;1.25;0.63;;;;;;;17.04;96.85;100855.13;5002003;28;20083;-67
2023/05/11 09:03:35;;;;;;;2.42;0.90;;;;;;;17.05;96.96;100856.69;4990625;28;20045;-67
2023/05/11 09:06:04;;;;;;;1.70;0.90;;;;;;;17.09;97.19;100860.19;5009887;28;20387;-66
2023/05/11 09:08:30;;;;;;;0.63;0.30;;;;;;;17.13;97.02;100864.41;5008383;28;20064;-65
2023/05/11 09:10:56;;;;;;;1.33;0.93;;;;;;;17.16;97.43;100865.59;5002472;28;20042;-67
2023/05/11 09:13:23;;;;;;;1.45;0.77;;;;;;;17.25;97.32;100862.47;5008500;28;20026;-67
2023/05/11 09:15:48;;;;;;;2.33;1.20;;;;;;;17.33;96.92;100867.47;5000365;28;20044;-66
2023/05/11 09:18:14;;;;;;;2.33;1.00;;;;;;;17.37;97.29;100862.78;5000342;28;20128;-65
2023/05/11 09:20:42;;;;;;;2.63;0.80;;;;;;;17.48;97.12;100863.53;5003544;28;20041;-67
2023/05/11 09:23:08;;;;;;;1.17;0.88;;;;;;;17.54;97.14;100861.97;5007583;28;20040;-65
2023/05/11 09:25:34;;;;;;;3.03;0.75;;;;;;;17.53;96.68;100865.88;5008851;28;20029;-65
2023/05/11 09:28:00;;;;;;;1.83;0.90;;;;;;;17.55;96.73;100868.97;5002289;28;20493;-66
2023/05/11 09:30:26;;;;;;;0.65;0.65;;;;;;;17.64;96.59;100871.25;5007514;28;20099;-66
2023/05/11 09:33:15;;;;;;;1.08;0.43;;;;;;;17.67;96.24;100873.19;4995773;28;20077;-64
2023/05/11 09:35:41;;;;;;;0.50;0.22;;;;;;;17.61;95.31;100877.50;4952010;28;20047;-66
2023/05/11 09:38:11;;;;;;;0.75;0.68;;;;;;;17.56;95.83;100873.25;4950938;28;20051;-66
2023/05/11 09:40:48;;;;;;;0.73;0.70;;;;;;;17.59;95.54;100877.91;4954574;28;20047;-66
2023/05/11 09:43:17;;;;;;;1.33;0.70;;;;;;;17.59;95.95;100872.47;4943423;28;20055;-66
2023/05/11 09:45:48;;;;;;;2.70;1.05;;;;;;;17.61;95.85;100882.94;4948816;28;20500;-64
2023/05/11 09:48:20;;;;;;;1.30;0.40;;;;;;;17.45;95.86;100875.22;4936286;28;20086;-66
2023/05/11 09:50:51;;;;;;;3.22;0.65;;;;;;;17.50;96.08;100883.00;4943005;28;20461;-66
2023/05/11 09:53:17;;;;;;;2.30;0.82;;;;;;;17.43;96.42;100880.28;4945419;28;20137;-65
2023/05/11 09:55:54;;;;;;;1.10;0.60;;;;;;;17.49;96.47;100876.00;4933550;28;20424;-66
2023/05/11 09:58:20;;;;;;;0.60;0.40;;;;;;;17.52;96.20;100877.91;4947301;28;20047;-65
2023/05/11 10:00:50;;;;;;;1.70;0.70;;;;;;;17.57;96.34;100876.75;4945621;28;20166;-65
2023/05/11 10:03:16;;;;;;;2.08;0.85;;;;;;;17.56;96.92;100873.25;4945481;28;20570;-64
2023/05/11 10:05:55;;;;;;;1.00;0.85;;;;;;;17.63;96.60;100873.22;4950961;28;20108;-67
2023/05/11 10:08:30;;;;;;;1.25;0.57;;;;;;;17.69;96.25;100884.47;4951120;28;20573;-66
2023/05/11 10:10:57;;;;;;;1.20;0.73;;;;;;;17.64;96.25;100882.94;4937297;28;20047;-64
2023/05/11 10:13:25;;;;;;;1.23;0.70;;;;;;;17.58;96.33;100872.84;4991882;28;20127;-65
2023/05/11 10:15:53;;;;;;;1.10;0.57;;;;;;;17.56;96.57;100867.00;5003625;28;20142;-66
2023/05/11 10:18:18;;;;;;;1.23;0.70;;;;;;;17.60;96.98;100874.00;5005058;28;20037;-63
2023/05/11 10:20:45;;;;;;;1.88;0.80;;;;;;;17.66;96.81;100869.69;5000574;28;20030;-64
2023/05/11 10:23:32;;;;;;;2.03;0.77;;;;;;;17.66;96.98;100864.25;5003487;28;20494;-64
2023/05/11 10:25:59;;;;;;;1.95;0.63;;;;;;;17.73;97.03;100872.38;4949408;28;20436;-65
2023/05/11 10:28:25;;;;;;;1.80;1.13;;;;;;;17.82;96.72;100866.50;4952293;28;20066;-65
2023/05/11 10:30:52;;;;;;;1.27;0.63;;;;;;;17.87;96.79;100866.84;4955256;28;20038;-66
2023/05/11 10:33:18;;;;;;;1.05;0.70;;;;;;;17.86;97.05;100861.81;4930582;29;20040;-66
2023/05/11 10:35:44;;;;;;;2.00;1.13;;;;;;;17.85;96.97;100860.22;4940807;28;20536;-65
2023/05/11 10:38:12;;;;;;;2.03;0.80;;;;;;;17.85;96.85;100866.47;4953254;28;20051;-67
2023/05/11 10:40:40;;;;;;;2.00;0.82;;;;;;;17.85;97.13;100857.50;4941714;28;20097;-66
2023/05/11 10:43:28;;;;;;;2.05;0.82;;;;;;;17.91;97.11;100853.97;4951397;28;20105;-66
2023/05/11 10:46:26;;;;;;;1.98;0.77;;;;;;;17.96;97.17;100861.72;4947847;28;20115;-65
2023/05/11 10:49:06;;;;;;;1.75;1.30;;;;;;;18.04;97.15;100863.22;4942816;28;20428;-64
2023/05/11 10:51:47;;;;;;;2.17;1.70;;;;;;;18.09;97.44;100859.31;4920725;28;20463;-65
2023/05/11 10:54:51;;;;;;;2.97;1.30;;;;;;;18.17;96.84;100860.03;4944069;29;20047;-66
2023/05/11 10:57:31;;;;;;;5.72;1.33;;;;;;;18.17;96.85;100852.63;4932044;28;20047;-66
2023/05/11 11:00:34;;;;;;;2.10;1.13;;;;;;;18.14;96.95;100856.16;4948753;28;20106;-66
2023/05/11 11:03:10;;;;;;;3.35;1.38;;;;;;;18.17;96.83;100857.31;4975537;28;20050;-66
2023/05/11 11:05:38;;;;;;;2.25;0.88;;;;;;;18.24;96.78;100862.69;5008540;28;20049;-64
2023/05/11 11:08:07;;;;;;;4.45;1.63;;;;;;;18.30;96.49;100859.16;4990588;28;20107;-64
2023/05/11 11:10:45;;;;;;;1.70;0.70;;;;;;;18.38;96.23;100855.19;4999336;28;20076;-61
2023/05/11 11:13:15;;;;;;;2.83;1.02;;;;;;;18.46;96.32;100851.25;5004152;28;20040;-62
2023/05/11 11:15:53;;;;;;;2.30;1.02;;;;;;;18.51;96.36;100863.66;4994983;28;20120;-62
2023/05/11 11:18:29;;;;;;;2.35;1.30;;;;;;;18.65;96.05;100866.28;5003291;28;20029;-64
2023/05/11 11:20:56;;;;;;;2.03;1.10;;;;;;;18.78;95.72;100859.13;5000471;28;20045;-64
2023/05/11 11:23:48;;;;;;;2.55;1.40;;;;;;;18.93;96.51;100852.34;4999205;28;20062;-65
2023/05/11 11:26:18;;;;;;;2.58;1.33;;;;;;;19.11;96.32;100858.41;5005899;28;20491;-65
2023/05/11 11:28:56;;;;;;;1.70;1.30;;;;;;;19.23;95.46;100862.56;5004562;28;20124;-66
2023/05/11 11:31:32;;;;;;;2.53;1.27;;;;;;;19.33;94.25;100859.75;5000434;28;20510;-66